sensor_id;sensor_type;location;lat;lon;timestamp;pressure;altitude;pressure_sealevel;temperature;humidity
69842;BME280;57138;51.326;-0.068;2023-09-18T00:01:51;98658.13;;;16.82;100.00
69842;BME280;57138;51.326;-0.068;2023-09-18T00:04:16;98660.06;;;16.87;100.00
69842;BME280;57138;51.326;-0.068;2023-09-18T00:06:41;98650.03;;;16.82;100.00
69842;BME280;57138;51.326;-0.068;2023-09-18T00:09:07;98623.84;;;16.73;100.00
69842;BME280;57138;51.326;-0.068;2023-09-18T00:11:36;98637.34;;;16.78;100.00
69842;BME280;57138;51.326;-0.068;2023-09-18T00:14:03;98639.50;;;16.76;100.00
69842;BME280;57138;51.326;-0.068;2023-09-18T00:16:29;98618.19;;;16.69;100.00
69842;BME280;57138;51.326;-0.068;2023-09-18T00:18:54;98598.19;;;16.70;100.00
69842;BME280;57138;51.326;-0.068;2023-09-18T00:21:20;98592.28;;;16.63;100.00
69842;BME280;57138;51.326;-0.068;2023-09-18T00:23:45;98595.50;;;16.65;100.00
69842;BME280;57138;51.326;-0.068;2023-09-18T00:26:11;98585.78;;;16.59;100.00
69842;BME280;57138;51.326;-0.068;2023-09-18T00:28:37;98598.19;;;16.60;100.00
69842;BME280;57138;51.326;-0.068;2023-09-18T00:31:02;98593.84;;;16.48;100.00
69842;BME280;57138;51.326;-0.068;2023-09-18T00:33:27;98599.25;;;16.43;100.00
69842;BME280;57138;51.326;-0.068;2023-09-18T00:35:53;98578.72;;;16.37;100.00
69842;BME280;57138;51.326;-0.068;2023-09-18T00:38:19;98575.50;;;16.35;100.00
69842;BME280;57138;51.326;-0.068;2023-09-18T00:40:44;98565.78;;;16.39;100.00
69842;BME280;57138;51.326;-0.068;2023-09-18T00:43:10;98560.13;;;16.35;100.00
69842;BME280;57138;51.326;-0.068;2023-09-18T00:45:40;98536.63;;;16.21;100.00
69842;BME280;57138;51.326;-0.068;2023-09-18T00:48:07;98536.63;;;16.26;100.00
69842;BME280;57138;51.326;-0.068;2023-09-18T00:50:35;98556.06;;;16.28;100.00
69842;BME280;57138;51.326;-0.068;2023-09-18T00:53:01;98560.66;;;16.27;100.00
69842;BME280;57138;51.326;-0.068;2023-09-18T00:55:29;98549.06;;;16.27;100.00
69842;BME280;57138;51.326;-0.068;2023-09-18T00:57:56;98552.81;;;16.26;100.00
69842;BME280;57138;51.326;-0.068;2023-09-18T01:00:22;98547.97;;;16.23;100.00
69842;BME280;57138;51.326;-0.068;2023-09-18T01:02:47;98547.97;;;16.23;100.00
69842;BME280;57138;51.326;-0.068;2023-09-18T01:05:13;98535.53;;;16.16;100.00
69842;BME280;57138;51.326;-0.068;2023-09-18T01:07:41;98536.34;;;16.17;100.00
69842;BME280;57138;51.326;-0.068;2023-09-18T01:10:08;98531.22;;;16.10;100.00
69842;BME280;57138;51.326;-0.068;2023-09-18T01:13:00;98514.25;;;16.15;100.00
69842;BME280;57138;51.326;-0.068;2023-09-18T01:15:37;98516.66;;;16.22;100.00
69842;BME280;57138;51.326;-0.068;2023-09-18T01:18:09;98504.28;;;16.21;100.00
69842;BME280;57138;51.326;-0.068;2023-09-18T01:20:34;98477.28;;;16.15;100.00
69842;BME280;57138;51.326;-0.068;2023-09-18T01:23:00;98484.31;;;16.22;100.00
69842;BME280;57138;51.326;-0.068;2023-09-18T01:25:28;98482.69;;;16.15;100.00
69842;BME280;57138;51.326;-0.068;2023-09-18T01:27:55;98468.66;;;16.18;100.00
69842;BME280;57138;51.326;-0.068;2023-09-18T01:30:21;98464.91;;;16.20;100.00
69842;BME280;57138;51.326;-0.068;2023-09-18T01:32:47;98444.94;;;16.15;100.00
69842;BME280;57138;51.326;-0.068;2023-09-18T01:35:14;98469.50;;;16.19;100.00
69842;BME280;57138;51.326;-0.068;2023-09-18T01:37:40;98442.25;;;16.15;100.00
69842;BME280;57138;51.326;-0.068;2023-09-18T01:40:07;98428.22;;;16.13;100.00
69842;BME280;57138;51.326;-0.068;2023-09-18T01:42:34;98403.97;;;16.13;100.00
69842;BME280;57138;51.326;-0.068;2023-09-18T01:45:00;98398.31;;;16.10;100.00
69842;BME280;57138;51.326;-0.068;2023-09-18T01:47:26;98391.03;;;16.10;100.00
69842;BME280;57138;51.326;-0.068;2023-09-18T01:49:54;98385.63;;;16.10;100.00
69842;BME280;57138;51.326;-0.068;2023-09-18T01:52:20;98370.53;;;16.04;100.00
69842;BME280;57138;51.326;-0.068;2023-09-18T01:54:45;98370.00;;;16.02;100.00
69842;BME280;57138;51.326;-0.068;2023-09-18T01:57:11;98363.78;;;16.02;100.00
69842;BME280;57138;51.326;-0.068;2023-09-18T01:59:37;98355.44;;;15.98;100.00
69842;BME280;57138;51.326;-0.068;2023-09-18T02:02:05;98362.47;;;15.99;100.00
69842;BME280;57138;51.326;-0.068;2023-09-18T02:04:35;98362.16;;;15.95;100.00
69842;BME280;57138;51.326;-0.068;2023-09-18T02:07:03;98385.63;;;16.00;100.00
69842;BME280;57138;51.326;-0.068;2023-09-18T02:09:28;98386.16;;;15.92;100.00
69842;BME280;57138;51.326;-0.068;2023-09-18T02:11:53;98385.09;;;15.93;100.00
69842;BME280;57138;51.326;-0.068;2023-09-18T02:14:19;98372.69;;;15.92;100.00
69842;BME280;57138;51.326;-0.068;2023-09-18T02:16:44;98376.97;;;15.88;100.00
69842;BME280;57138;51.326;-0.068;2023-09-18T02:19:12;98377.00;;;15.82;100.00
69842;BME280;57138;51.326;-0.068;2023-09-18T02:21:38;98377.00;;;15.82;100.00
69842;BME280;57138;51.326;-0.068;2023-09-18T02:24:04;98372.13;;;15.79;100.00
69842;BME280;57138;51.326;-0.068;2023-09-18T02:26:30;98380.22;;;15.79;100.00
69842;BME280;57138;51.326;-0.068;2023-09-18T02:29:00;98392.34;;;15.87;100.00
69842;BME280;57138;51.326;-0.068;2023-09-18T02:31:26;98409.84;;;15.85;100.00
69842;BME280;57138;51.326;-0.068;2023-09-18T02:33:52;98400.44;;;15.82;100.00
69842;BME280;57138;51.326;-0.068;2023-09-18T02:36:18;98390.97;;;15.74;100.00
69842;BME280;57138;51.326;-0.068;2023-09-18T02:38:43;98390.97;;;15.74;100.00
69842;BME280;57138;51.326;-0.068;2023-09-18T02:41:09;98402.28;;;15.76;100.00
69842;BME280;57138;51.326;-0.068;2023-09-18T02:43:35;98383.41;;;15.66;100.00
69842;BME280;57138;51.326;-0.068;2023-09-18T02:46:03;98379.09;;;15.60;100.00
69842;BME280;57138;51.326;-0.068;2023-09-18T02:48:28;98399.84;;;15.64;100.00
69842;BME280;57138;51.326;-0.068;2023-09-18T02:50:54;98398.22;;;15.63;100.00
69842;BME280;57138;51.326;-0.068;2023-09-18T02:53:21;98397.94;;;15.60;100.00
69842;BME280;57138;51.326;-0.068;2023-09-18T02:55:48;98392.00;;;15.53;100.00
69842;BME280;57138;51.326;-0.068;2023-09-18T02:58:13;98387.13;;;15.50;100.00
69842;BME280;57138;51.326;-0.068;2023-09-18T03:00:42;98400.06;;;15.53;100.00
69842;BME280;57138;51.326;-0.068;2023-09-18T03:03:11;98405.47;;;15.53;100.00
69842;BME280;57138;51.326;-0.068;2023-09-18T03:05:38;98386.88;;;15.46;100.00
69842;BME280;57138;51.326;-0.068;2023-09-18T03:08:03;98390.09;;;15.48;100.00
69842;BME280;57138;51.326;-0.068;2023-09-18T03:10:33;98376.91;;;15.46;100.00
69842;BME280;57138;51.326;-0.068;2023-09-18T03:12:59;98374.75;;;15.49;100.00
69842;BME280;57138;51.326;-0.068;2023-09-18T03:15:25;98371.25;;;15.48;100.00
69842;BME280;57138;51.326;-0.068;2023-09-18T03:17:50;98392.25;;;15.51;100.00
69842;BME280;57138;51.326;-0.068;2023-09-18T03:20:16;98389.84;;;15.44;100.00
69842;BME280;57138;51.326;-0.068;2023-09-18T03:22:43;98381.44;;;15.41;100.00
69842;BME280;57138;51.326;-0.068;2023-09-18T03:25:08;98361.75;;;15.30;100.00
69842;BME280;57138;51.326;-0.068;2023-09-18T03:27:35;98384.97;;;15.41;100.00
69842;BME280;57138;51.326;-0.068;2023-09-18T03:30:00;98380.13;;;15.38;100.00
69842;BME280;57138;51.326;-0.068;2023-09-18T03:32:26;98372.00;;;15.33;100.00
69842;BME280;57138;51.326;-0.068;2023-09-18T03:34:51;98383.06;;;15.37;100.00
69842;BME280;57138;51.326;-0.068;2023-09-18T03:37:16;98372.56;;;15.35;100.00
69842;BME280;57138;51.326;-0.068;2023-09-18T03:39:42;98378.50;;;15.37;100.00
69842;BME280;57138;51.326;-0.068;2023-09-18T03:42:07;98386.03;;;15.40;100.00
69842;BME280;57138;51.326;-0.068;2023-09-18T03:44:33;98382.03;;;15.48;100.00
69842;BME280;57138;51.326;-0.068;2023-09-18T03:46:58;98391.19;;;15.52;100.00
69842;BME280;57138;51.326;-0.068;2023-09-18T03:49:23;98371.50;;;15.46;100.00
69842;BME280;57138;51.326;-0.068;2023-09-18T03:51:49;98375.56;;;15.49;100.00
69842;BME280;57138;51.326;-0.068;2023-09-18T03:54:14;98376.38;;;15.50;100.00
69842;BME280;57138;51.326;-0.068;2023-09-18T03:56:40;98375.28;;;15.45;100.00
69842;BME280;57138;51.326;-0.068;2023-09-18T03:59:06;98379.06;;;15.44;100.00
69842;BME280;57138;51.326;-0.068;2023-09-18T04:01:31;98364.22;;;15.37;100.00
69842;BME280;57138;51.326;-0.068;2023-09-18T04:03:57;98363.97;;;15.38;100.00
69842;BME280;57138;51.326;-0.068;2023-09-18T04:06:23;98369.88;;;15.40;100.00
69842;BME280;57138;51.326;-0.068;2023-09-18T04:08:51;98369.88;;;15.40;100.00
69842;BME280;57138;51.326;-0.068;2023-09-18T04:11:17;98364.19;;;15.32;100.00
69842;BME280;57138;51.326;-0.068;2023-09-18T04:13:44;98370.94;;;15.39;100.00
69842;BME280;57138;51.326;-0.068;2023-09-18T04:16:10;98386.56;;;15.42;100.00
69842;BME280;57138;51.326;-0.068;2023-09-18T04:18:38;98377.97;;;15.40;100.00
69842;BME280;57138;51.326;-0.068;2023-09-18T04:21:04;98383.34;;;15.40;100.00
69842;BME280;57138;51.326;-0.068;2023-09-18T04:23:29;98360.97;;;15.30;100.00
69842;BME280;57138;51.326;-0.068;2023-09-18T04:25:55;98384.97;;;15.41;100.00
69842;BME280;57138;51.326;-0.068;2023-09-18T04:28:21;98382.53;;;15.40;100.00
69842;BME280;57138;51.326;-0.068;2023-09-18T04:30:47;98378.50;;;15.37;100.00
69842;BME280;57138;51.326;-0.068;2023-09-18T04:33:14;98379.06;;;15.44;100.00
69842;BME280;57138;51.326;-0.068;2023-09-18T04:35:40;98380.13;;;15.43;100.00
69842;BME280;57138;51.326;-0.068;2023-09-18T04:38:08;98382.03;;;15.48;100.00
69842;BME280;57138;51.326;-0.068;2023-09-18T04:40:34;98364.22;;;15.42;100.00
69842;BME280;57138;51.326;-0.068;2023-09-18T04:43:00;98374.78;;;15.54;100.00
69842;BME280;57138;51.326;-0.068;2023-09-18T04:45:26;98372.34;;;15.57;100.00
69842;BME280;57138;51.326;-0.068;2023-09-18T04:47:52;98364.53;;;15.56;100.00
69842;BME280;57138;51.326;-0.068;2023-09-18T04:50:17;98369.66;;;15.62;100.00
69842;BME280;57138;51.326;-0.068;2023-09-18T04:52:43;98373.44;;;15.61;100.00
69842;BME280;57138;51.326;-0.068;2023-09-18T04:55:10;98366.16;;;15.57;100.00
69842;BME280;57138;51.326;-0.068;2023-09-18T04:57:36;98369.34;;;15.49;100.00
69842;BME280;57138;51.326;-0.068;2023-09-18T05:00:02;98373.41;;;15.46;100.00
69842;BME280;57138;51.326;-0.068;2023-09-18T05:02:28;98368.28;;;15.44;100.00
69842;BME280;57138;51.326;-0.068;2023-09-18T05:04:56;98370.94;;;15.39;100.00
69842;BME280;57138;51.326;-0.068;2023-09-18T05:07:21;98373.63;;;15.39;100.00
69842;BME280;57138;51.326;-0.068;2023-09-18T05:09:47;98373.09;;;15.42;100.00
69842;BME280;57138;51.326;-0.068;2023-09-18T05:12:12;98364.75;;;15.39;100.00
69842;BME280;57138;51.326;-0.068;2023-09-18T05:14:41;98370.94;;;15.39;100.00
69842;BME280;57138;51.326;-0.068;2023-09-18T05:17:09;98372.56;;;15.40;100.00
69842;BME280;57138;51.326;-0.068;2023-09-18T05:19:35;98377.69;;;15.47;100.00
69842;BME280;57138;51.326;-0.068;2023-09-18T05:22:00;98382.03;;;15.53;100.00
69842;BME280;57138;51.326;-0.068;2023-09-18T05:24:26;98374.75;;;15.49;100.00
69842;BME280;57138;51.326;-0.068;2023-09-18T05:26:52;98366.97;;;15.52;100.00
69842;BME280;57138;51.326;-0.068;2023-09-18T05:29:18;98379.63;;;15.57;100.00
69842;BME280;57138;51.326;-0.068;2023-09-18T05:31:44;98372.88;;;15.59;100.00
69842;BME280;57138;51.326;-0.068;2023-09-18T05:34:11;98372.91;;;15.64;100.00
69842;BME280;57138;51.326;-0.068;2023-09-18T05:36:36;98378.28;;;15.64;100.00
69842;BME280;57138;51.326;-0.068;2023-09-18T05:39:02;98368.06;;;15.61;100.00
69842;BME280;57138;51.326;-0.068;2023-09-18T05:41:28;98361.84;;;15.61;100.00
69842;BME280;57138;51.326;-0.068;2023-09-18T05:43:56;98370.44;;;15.58;100.00
69842;BME280;57138;51.326;-0.068;2023-09-18T05:46:22;98385.56;;;15.59;100.00
69842;BME280;57138;51.326;-0.068;2023-09-18T05:48:47;98382.31;;;15.57;100.00
69842;BME280;57138;51.326;-0.068;2023-09-18T05:51:13;98375.84;;;15.53;100.00
69842;BME280;57138;51.326;-0.068;2023-09-18T05:53:38;98369.91;;;15.51;100.00
69842;BME280;57138;51.326;-0.068;2023-09-18T05:56:04;98365.03;;;15.42;100.00
69842;BME280;57138;51.326;-0.068;2023-09-18T05:58:33;98369.34;;;15.43;100.00
69842;BME280;57138;51.326;-0.068;2023-09-18T06:01:00;98370.41;;;15.42;100.00
69842;BME280;57138;51.326;-0.068;2023-09-18T06:03:26;98360.69;;;15.36;100.00
69842;BME280;57138;51.326;-0.068;2023-09-18T06:05:52;98369.34;;;15.38;100.00
69842;BME280;57138;51.326;-0.068;2023-09-18T06:08:18;98363.38;;;15.31;100.00
69842;BME280;57138;51.326;-0.068;2023-09-18T06:10:44;98368.78;;;15.36;100.00
69842;BME280;57138;51.326;-0.068;2023-09-18T06:13:10;98371.75;;;15.35;100.00
69842;BME280;57138;51.326;-0.068;2023-09-18T06:15:35;98356.66;;;15.28;100.00
69842;BME280;57138;51.326;-0.068;2023-09-18T06:18:01;98364.19;;;15.32;100.00
69842;BME280;57138;51.326;-0.068;2023-09-18T06:20:27;98369.88;;;15.35;100.00
69842;BME280;57138;51.326;-0.068;2023-09-18T06:22:52;98367.16;;;15.30;100.00
69842;BME280;57138;51.326;-0.068;2023-09-18T06:25:17;98372.84;;;15.34;100.00
69842;BME280;57138;51.326;-0.068;2023-09-18T06:27:43;98372.00;;;15.33;100.00
69842;BME280;57138;51.326;-0.068;2023-09-18T06:30:08;98366.63;;;15.33;100.00
69842;BME280;57138;51.326;-0.068;2023-09-18T06:32:34;98373.09;;;15.42;100.00
69842;BME280;57138;51.326;-0.068;2023-09-18T06:35:02;98375.28;;;15.45;100.00
69842;BME280;57138;51.326;-0.068;2023-09-18T06:37:27;98356.16;;;15.42;100.00
69842;BME280;57138;51.326;-0.068;2023-09-18T06:39:53;98355.88;;;15.49;100.00
69842;BME280;57138;51.326;-0.068;2023-09-18T06:42:18;98352.13;;;15.55;100.00
69842;BME280;57138;51.326;-0.068;2023-09-18T06:44:44;98358.06;;;15.57;100.00
69842;BME280;57138;51.326;-0.068;2023-09-18T06:47:09;98369.13;;;15.66;100.00
69842;BME280;57138;51.326;-0.068;2023-09-18T06:49:35;98370.75;;;15.67;100.00
69842;BME280;57138;51.326;-0.068;2023-09-18T06:52:00;98372.09;;;15.69;100.00
69842;BME280;57138;51.326;-0.068;2023-09-18T06:54:25;98364.03;;;15.74;100.00
69842;BME280;57138;51.326;-0.068;2023-09-18T06:56:51;98377.53;;;15.85;100.00
69842;BME280;57138;51.326;-0.068;2023-09-18T06:59:16;98380.78;;;15.87;100.00
69842;BME280;57138;51.326;-0.068;2023-09-18T07:01:42;98364.59;;;15.87;100.00
69842;BME280;57138;51.326;-0.068;2023-09-18T07:04:08;98371.06;;;16.01;100.00
69842;BME280;57138;51.326;-0.068;2023-09-18T07:06:33;98373.22;;;16.09;100.00
69842;BME280;57138;51.326;-0.068;2023-09-18T07:08:58;98374.31;;;16.13;100.00
69842;BME280;57138;51.326;-0.068;2023-09-18T07:11:24;98381.03;;;16.21;100.00
69842;BME280;57138;51.326;-0.068;2023-09-18T07:13:50;98371.59;;;16.18;100.00
69842;BME280;57138;51.326;-0.068;2023-09-18T07:16:15;98382.13;;;16.25;100.00
69842;BME280;57138;51.326;-0.068;2023-09-18T07:18:41;98364.06;;;16.21;100.00
69842;BME280;57138;51.326;-0.068;2023-09-18T07:21:07;98361.91;;;16.23;100.00
69842;BME280;57138;51.326;-0.068;2023-09-18T07:23:32;98378.06;;;16.33;100.00
69842;BME280;57138;51.326;-0.068;2023-09-18T07:26:02;98374.81;;;16.31;100.00
69842;BME280;57138;51.326;-0.068;2023-09-18T07:28:28;98363.78;;;16.17;100.00
69842;BME280;57138;51.326;-0.068;2023-09-18T07:30:53;98378.06;;;16.23;100.00
69842;BME280;57138;51.326;-0.068;2023-09-18T07:33:19;98380.78;;;16.17;100.00
69842;BME280;57138;51.326;-0.068;2023-09-18T07:35:49;98369.72;;;16.14;100.00
69842;BME280;57138;51.326;-0.068;2023-09-18T07:38:17;98377.53;;;16.15;100.00
69842;BME280;57138;51.326;-0.068;2023-09-18T07:40:44;98357.88;;;16.10;100.00
69842;BME280;57138;51.326;-0.068;2023-09-18T07:43:10;98358.16;;;16.08;100.00
69842;BME280;57138;51.326;-0.068;2023-09-18T07:45:38;98370.53;;;16.25;100.00
69842;BME280;57138;51.326;-0.068;2023-09-18T07:48:04;98367.25;;;16.33;100.00
69842;BME280;57138;51.326;-0.068;2023-09-18T07:50:31;98343.56;;;16.20;100.00
69842;BME280;57138;51.326;-0.068;2023-09-18T07:52:58;98370.22;;;16.42;100.00
69842;BME280;57138;51.326;-0.068;2023-09-18T07:55:24;98362.69;;;16.39;100.00
69842;BME280;57138;51.326;-0.068;2023-09-18T07:57:52;98362.41;;;16.40;100.00
69842;BME280;57138;51.326;-0.068;2023-09-18T08:00:17;98372.38;;;16.50;100.00
69842;BME280;57138;51.326;-0.068;2023-09-18T08:02:43;98367.50;;;16.47;100.00
69842;BME280;57138;51.326;-0.068;2023-09-18T08:05:09;98363.22;;;16.41;100.00
69842;BME280;57138;51.326;-0.068;2023-09-18T08:07:37;98354.88;;;16.37;100.00
69842;BME280;57138;51.326;-0.068;2023-09-18T08:10:04;98350.00;;;16.39;100.00
69842;BME280;57138;51.326;-0.068;2023-09-18T08:12:33;98371.03;;;16.47;100.00
69842;BME280;57138;51.326;-0.068;2023-09-18T08:14:59;98356.75;;;16.42;100.00
69842;BME280;57138;51.326;-0.068;2023-09-18T08:17:25;98367.81;;;16.50;100.00
69842;BME280;57138;51.326;-0.068;2023-09-18T08:19:52;98366.16;;;16.60;100.00
69842;BME280;57138;51.326;-0.068;2023-09-18T08:22:18;98373.16;;;16.61;100.00
69842;BME280;57138;51.326;-0.068;2023-09-18T08:24:45;98359.16;;;16.53;100.00
69842;BME280;57138;51.326;-0.068;2023-09-18T08:27:11;98360.22;;;16.52;100.00
69842;BME280;57138;51.326;-0.068;2023-09-18T08:29:37;98344.59;;;16.49;100.00
69842;BME280;57138;51.326;-0.068;2023-09-18T08:32:03;98350.53;;;16.57;100.00
69842;BME280;57138;51.326;-0.068;2023-09-18T08:34:28;98335.69;;;16.54;100.00
69842;BME280;57138;51.326;-0.068;2023-09-18T08:36:54;98347.25;;;16.65;100.00
69842;BME280;57138;51.326;-0.068;2023-09-18T08:39:19;98318.69;;;16.53;100.00
69842;BME280;57138;51.326;-0.068;2023-09-18T08:41:50;98335.91;;;16.68;100.00
69842;BME280;57138;51.326;-0.068;2023-09-18T08:44:17;98336.47;;;16.65;100.00
69842;BME280;57138;51.326;-0.068;2023-09-18T08:46:43;98343.19;;;16.73;100.00
69842;BME280;57138;51.326;-0.068;2023-09-18T08:49:10;98333.72;;;16.80;100.00
69842;BME280;57138;51.326;-0.068;2023-09-18T08:51:38;98334.25;;;16.87;100.00
69842;BME280;57138;51.326;-0.068;2023-09-18T08:54:04;98320.75;;;16.82;100.00
69842;BME280;57138;51.326;-0.068;2023-09-18T08:56:32;98291.88;;;16.88;100.00
69842;BME280;57138;51.326;-0.068;2023-09-18T08:59:00;98308.47;;;17.16;100.00
69842;BME280;57138;51.326;-0.068;2023-09-18T09:01:25;98297.09;;;17.24;100.00
69842;BME280;57138;51.326;-0.068;2023-09-18T09:03:51;98282.50;;;17.25;100.00
69842;BME280;57138;51.326;-0.068;2023-09-18T09:06:16;98272.78;;;17.24;100.00
69842;BME280;57138;51.326;-0.068;2023-09-18T09:08:44;98287.53;;;17.37;100.00
69842;BME280;57138;51.326;-0.068;2023-09-18T09:11:10;98277.81;;;17.41;100.00
69842;BME280;57138;51.326;-0.068;2023-09-18T09:13:35;98270.78;;;17.40;100.00
69842;BME280;57138;51.326;-0.068;2023-09-18T09:16:01;98250.84;;;17.36;100.00
69842;BME280;57138;51.326;-0.068;2023-09-18T09:18:29;98251.78;;;17.50;100.00
69842;BME280;57138;51.326;-0.068;2023-09-18T09:21:01;98246.56;;;17.64;100.00
69842;BME280;57138;51.326;-0.068;2023-09-18T09:23:30;98232.75;;;17.66;99.83
69842;BME280;57138;51.326;-0.068;2023-09-18T09:26:19;98241.88;;;17.70;96.84
69842;BME280;57138;51.326;-0.068;2023-09-18T09:28:45;98235.97;;;17.68;97.49
69842;BME280;57138;51.326;-0.068;2023-09-18T09:31:22;98237.09;;;17.61;96.51
69842;BME280;57138;51.326;-0.068;2023-09-18T09:33:51;98220.69;;;17.53;96.54
69842;BME280;57138;51.326;-0.068;2023-09-18T09:36:21;98220.38;;;17.59;97.61
69842;BME280;57138;51.326;-0.068;2023-09-18T09:38:48;98224.72;;;17.55;95.21
69842;BME280;57138;51.326;-0.068;2023-09-18T09:41:15;98205.88;;;17.45;96.89
69842;BME280;57138;51.326;-0.068;2023-09-18T09:43:43;98209.16;;;17.42;95.16
69842;BME280;57138;51.326;-0.068;2023-09-18T09:46:15;98211.09;;;17.36;96.04
69842;BME280;57138;51.326;-0.068;2023-09-18T09:49:04;98200.59;;;17.35;96.64
69842;BME280;57138;51.326;-0.068;2023-09-18T09:51:31;98180.16;;;17.23;95.87
69842;BME280;57138;51.326;-0.068;2023-09-18T09:53:57;98191.19;;;17.27;96.58
69842;BME280;57138;51.326;-0.068;2023-09-18T09:57:01;98194.78;;;17.17;98.67
69842;BME280;57138;51.326;-0.068;2023-09-18T09:59:28;98182.44;;;17.06;97.62
69842;BME280;57138;51.326;-0.068;2023-09-18T10:01:55;98179.25;;;16.99;97.90
69842;BME280;57138;51.326;-0.068;2023-09-18T10:04:25;98163.13;;;16.88;99.15
69842;BME280;57138;51.326;-0.068;2023-09-18T10:06:57;98160.69;;;16.87;99.60
69842;BME280;57138;51.326;-0.068;2023-09-18T10:09:26;98156.66;;;16.84;99.97
69842;BME280;57138;51.326;-0.068;2023-09-18T10:11:56;98155.63;;;16.75;99.79
69842;BME280;57138;51.326;-0.068;2023-09-18T10:14:31;98144.84;;;16.70;100.00
69842;BME280;57138;51.326;-0.068;2023-09-18T10:17:11;98148.09;;;16.72;98.73
69842;BME280;57138;51.326;-0.068;2023-09-18T10:19:40;98155.13;;;16.68;98.45
69842;BME280;57138;51.326;-0.068;2023-09-18T10:22:21;98146.78;;;16.64;100.00
69842;BME280;57138;51.326;-0.068;2023-09-18T10:24:54;98153.31;;;16.58;99.12
69842;BME280;57138;51.326;-0.068;2023-09-18T10:27:25;98148.47;;;16.55;99.36
69842;BME280;57138;51.326;-0.068;2023-09-18T10:29:52;98127.47;;;16.42;99.27
69842;BME280;57138;51.326;-0.068;2023-09-18T10:32:21;98139.06;;;16.42;99.14
69842;BME280;57138;51.326;-0.068;2023-09-18T10:34:47;98142.88;;;16.36;100.00
69842;BME280;57138;51.326;-0.068;2023-09-18T10:37:14;98129.47;;;16.26;100.00
69842;BME280;57138;51.326;-0.068;2023-09-18T10:39:41;98140.00;;;16.22;100.00
69842;BME280;57138;51.326;-0.068;2023-09-18T10:42:09;98126.28;;;16.13;99.71
69842;BME280;57138;51.326;-0.068;2023-09-18T10:44:39;98127.34;;;16.12;100.00
69842;BME280;57138;51.326;-0.068;2023-09-18T10:47:06;98140.00;;;16.22;100.00
69842;BME280;57138;51.326;-0.068;2023-09-18T10:49:34;98126.72;;;16.31;100.00
69842;BME280;57138;51.326;-0.068;2023-09-18T10:52:00;98112.69;;;16.34;100.00
69842;BME280;57138;51.326;-0.068;2023-09-18T10:54:27;98110.75;;;16.45;100.00
69842;BME280;57138;51.326;-0.068;2023-09-18T10:56:55;98131.44;;;16.54;100.00
69842;BME280;57138;51.326;-0.068;2023-09-18T10:59:21;98122.59;;;16.49;100.00
69842;BME280;57138;51.326;-0.068;2023-09-18T11:01:47;98117.69;;;16.56;100.00
69842;BME280;57138;51.326;-0.068;2023-09-18T11:04:17;98113.53;;;16.74;100.00
69842;BME280;57138;51.326;-0.068;2023-09-18T11:09:28;98107.66;;;17.06;100.00
69842;BME280;57138;51.326;-0.068;2023-09-18T11:17:39;98134.47;;;17.56;100.00
69842;BME280;57138;51.326;-0.068;2023-09-18T11:22:47;98131.94;;;17.65;100.00
69842;BME280;57138;51.326;-0.068;2023-09-18T11:25:38;98124.47;;;17.57;100.00
69842;BME280;57138;51.326;-0.068;2023-09-18T11:28:06;98119.34;;;17.55;100.00
69842;BME280;57138;51.326;-0.068;2023-09-18T11:30:34;98136.84;;;17.63;100.00
69842;BME280;57138;51.326;-0.068;2023-09-18T11:33:05;98132.28;;;17.58;100.00
69842;BME280;57138;51.326;-0.068;2023-09-18T11:35:35;98133.09;;;17.59;100.00
69842;BME280;57138;51.326;-0.068;2023-09-18T11:38:04;98152.09;;;17.78;100.00
69842;BME280;57138;51.326;-0.068;2023-09-18T11:40:35;98146.59;;;17.88;100.00
69842;BME280;57138;51.326;-0.068;2023-09-18T11:43:28;98144.22;;;18.06;100.00
69842;BME280;57138;51.326;-0.068;2023-09-18T11:46:00;98151.19;;;18.12;100.00
69842;BME280;57138;51.326;-0.068;2023-09-18T11:48:29;98159.56;;;18.16;100.00
69842;BME280;57138;51.326;-0.068;2023-09-18T11:50:57;98161.97;;;18.17;100.00
69842;BME280;57138;51.326;-0.068;2023-09-18T11:53:24;98167.66;;;18.16;100.00
69842;BME280;57138;51.326;-0.068;2023-09-18T11:55:53;98159.31;;;18.12;100.00
69842;BME280;57138;51.326;-0.068;2023-09-18T11:58:19;98161.44;;;18.15;100.00
69842;BME280;57138;51.326;-0.068;2023-09-18T12:00:51;98122.38;;;18.02;100.00
69842;BME280;57138;51.326;-0.068;2023-09-18T12:03:21;98157.97;;;18.33;100.00
69842;BME280;57138;51.326;-0.068;2023-09-18T12:06:02;98176.72;;;18.49;100.00
69842;BME280;57138;51.326;-0.068;2023-09-18T12:08:32;98177.16;;;18.56;100.00
69842;BME280;57138;51.326;-0.068;2023-09-18T12:10:58;98186.38;;;18.55;100.00
69842;BME280;57138;51.326;-0.068;2023-09-18T12:13:32;98179.69;;;18.47;100.00
69842;BME280;57138;51.326;-0.068;2023-09-18T12:16:02;98189.81;;;18.42;100.00
69842;BME280;57138;51.326;-0.068;2023-09-18T12:18:33;98179.97;;;18.27;100.00
69842;BME280;57138;51.326;-0.068;2023-09-18T12:21:06;98184.63;;;18.21;100.00
69842;BME280;57138;51.326;-0.068;2023-09-18T12:23:43;98201.81;;;18.30;100.00
69842;BME280;57138;51.326;-0.068;2023-09-18T12:26:11;98187.56;;;18.25;100.00
69842;BME280;57138;51.326;-0.068;2023-09-18T12:28:41;98193.13;;;18.33;100.00
69842;BME280;57138;51.326;-0.068;2023-09-18T12:31:11;98197.47;;;18.35;100.00
69842;BME280;57138;51.326;-0.068;2023-09-18T12:33:38;98206.09;;;18.37;99.88
69842;BME280;57138;51.326;-0.068;2023-09-18T12:36:05;98216.25;;;18.45;100.00
69842;BME280;57138;51.326;-0.068;2023-09-18T12:38:31;98202.41;;;18.52;99.98
69842;BME280;57138;51.326;-0.068;2023-09-18T12:41:00;98220.31;;;18.66;100.00
69842;BME280;57138;51.326;-0.068;2023-09-18T12:43:40;98208.91;;;18.69;100.00
69842;BME280;57138;51.326;-0.068;2023-09-18T12:46:08;98220.19;;;18.77;98.33
69842;BME280;57138;51.326;-0.068;2023-09-18T12:48:40;98224.44;;;18.83;99.44
69842;BME280;57138;51.326;-0.068;2023-09-18T12:51:10;98226.66;;;18.81;97.22
69842;BME280;57138;51.326;-0.068;2023-09-18T12:53:36;98215.16;;;18.70;96.69